Riverside Park, Ohio
Current Conditions -  °F | °C
As of 11:53 AM on Monday 24 Nov 2014 (Local Time) from KPHD Reporting Station
Overcast Overcast  
Wind Chill: 66°   Ceiling: 7000
Heat Index: 66°   Visibility: 10mi
Dew Point: 45°   Wind: 17mph
Humidity: 47%   Direction: 220°SW
Pressure: 29.37"   Gusts: 36mph
Location:  40.3767°N, 81.2875°W
Report Text: KPHD 241653Z AUTO 22015G31KT 10SM SCT060 BKN070 OVC085 19/07 A2937 RMK AO2 PK WND 25040/1627 SLP942 T01890072 $
Loading
Personal Weather Stations






























Interactive Weather Map New forecast layout! Learn more

10-Day Weather Forecast

Advertisements
Track Severe Weather on mobile